Time,TemperatureF,DewpointF,PressureIn,WindDirection,WindDirectionDegrees,WindSpeedMPH,WindSpeedGustMPH,Humidity,HourlyPrecipIn,Conditions,Clouds,dailyrainin,SoftwareType,DateUTC
2014-12-28 00:02:00,35.5,33.0,29.09,WNW,293,0.9,4.3,91,0.00,,,0.00,WUHU216HW,2014-12-28 08:02:00,
2014-12-28 00:07:00,35.3,32.9,29.08,West,270,0.9,3.1,91,0.00,,,0.00,WUHU216HW,2014-12-28 08:07:00,
2014-12-28 00:12:00,35.3,32.9,29.08,West,270,0.9,2.5,91,0.00,,,0.00,WUHU216HW,2014-12-28 08:12:00,
2014-12-28 00:17:00,34.9,32.2,29.09,NW,315,0.7,2.5,90,0.00,,,0.00,WUHU216HW,2014-12-28 08:17:00,
2014-12-28 00:22:00,35.3,33.1,29.08,NW,315,2.5,2.5,92,0.00,,,0.00,WUHU216HW,2014-12-28 08:22:00,
2014-12-28 00:27:00,35.6,33.2,29.08,NW,315,2.7,2.7,91,0.00,,,0.00,WUHU216HW,2014-12-28 08:27:00,
2014-12-28 00:32:00,35.8,33.1,29.09,NW,315,0.2,2.7,90,0.00,,,0.00,WUHU216HW,2014-12-28 08:32:00,
2014-12-28 00:37:00,35.6,32.9,29.09,NW,315,1.1,4.3,90,0.00,,,0.00,WUHU216HW,2014-12-28 08:37:00,
2014-12-28 00:42:00,35.5,32.8,29.09,NW,315,0.0,4.3,90,0.00,,,0.00,WUHU216HW,2014-12-28 08:42:00,
2014-12-28 00:47:00,35.1,32.4,29.09,West,270,2.0,2.7,90,0.00,,,0.00,WUHU216HW,2014-12-28 08:47:00,
2014-12-28 00:52:00,34.9,32.2,29.09,West,270,0.0,2.5,90,0.00,,,0.00,WUHU216HW,2014-12-28 08:52:00,
2014-12-28 00:57:00,34.4,31.7,29.09,SSE,158,0.4,2.0,90,0.00,,,0.00,WUHU216HW,2014-12-28 08:57:00,
2014-12-28 01:02:00,33.8,31.1,29.09,NE,45,0.9,0.9,90,0.00,,,0.00,WUHU216HW,2014-12-28 09:02:00,
2014-12-28 01:07:00,34.2,31.8,29.09,NNE,23,1.3,1.8,91,0.00,,,0.00,WUHU216HW,2014-12-28 09:07:00,
2014-12-28 01:12:00,34.2,31.8,29.09,SSE,158,1.8,1.8,91,0.00,,,0.00,WUHU216HW,2014-12-28 09:12:00,
2014-12-28 01:17:00,34.2,31.8,29.10,North,0,0.4,1.8,91,0.00,,,0.00,WUHU216HW,2014-12-28 09:17:00,
2014-12-28 01:22:00,33.8,31.4,29.10,North,0,0.0,0.7,91,0.00,,,0.00,WUHU216HW,2014-12-28 09:22:00,
2014-12-28 01:27:00,33.5,30.8,29.10,North,0,0.0,0.4,90,0.00,,,0.00,WUHU216HW,2014-12-28 09:27:00,
2014-12-28 01:32:00,33.3,31.0,29.10,North,0,0.0,0.2,91,0.00,,,0.00,WUHU216HW,2014-12-28 09:32:00,
2014-12-28 01:37:00,33.3,31.0,29.10,North,0,0.0,0.2,91,0.00,,,0.00,WUHU216HW,2014-12-28 09:37:00,
2014-12-28 01:42:00,33.5,31.1,29.10,North,0,0.0,0.4,91,0.00,,,0.00,WUHU216HW,2014-12-28 09:42:00,
2014-12-28 01:47:00,33.1,30.8,29.10,North,0,0.4,0.4,91,0.00,,,0.00,WUHU216HW,2014-12-28 09:47:00,
2014-12-28 01:52:00,33.3,31.1,29.11,WNW,293,0.7,0.7,92,0.00,,,0.00,WUHU216HW,2014-12-28 09:52:00,
2014-12-28 01:57:00,33.7,31.8,29.11,West,270,3.4,3.4,93,0.00,,,0.00,WUHU216HW,2014-12-28 09:57:00,
2014-12-28 02:02:00,34.0,32.1,29.11,West,270,3.6,4.0,93,0.00,,,0.00,WUHU216HW,2014-12-28 10:02:00,
2014-12-28 02:07:00,34.2,32.0,29.11,WNW,293,4.3,4.7,92,0.00,,,0.00,WUHU216HW,2014-12-28 10:07:00,
2014-12-28 02:12:00,34.2,32.0,29.12,WNW,293,1.8,4.7,92,0.00,,,0.00,WUHU216HW,2014-12-28 10:12:00,
2014-12-28 02:17:00,34.2,32.0,29.12,NNW,338,0.4,4.3,92,0.00,,,0.00,WUHU216HW,2014-12-28 10:17:00,
2014-12-28 02:22:00,33.8,31.7,29.12,NE,45,0.7,2.7,92,0.00,,,0.00,WUHU216HW,2014-12-28 10:22:00,
2014-12-28 02:27:00,33.5,31.3,29.13,NNE,23,0.2,0.7,92,0.00,,,0.00,WUHU216HW,2014-12-28 10:27:00,
2014-12-28 02:32:00,33.5,31.3,29.13,NW,315,0.4,0.4,92,0.00,,,0.00,WUHU216HW,2014-12-28 10:32:00,
2014-12-28 02:37:00,33.8,31.7,29.13,NW,315,0.7,0.7,92,0.00,,,0.00,WUHU216HW,2014-12-28 10:37:00,
2014-12-28 02:42:00,33.8,31.7,29.13,NNW,338,0.4,0.7,92,0.00,,,0.00,WUHU216HW,2014-12-28 10:42:00,
2014-12-28 02:47:00,33.7,31.5,29.14,NW,315,0.2,1.1,92,0.00,,,0.00,WUHU216HW,2014-12-28 10:47:00,
2014-12-28 02:52:00,33.7,31.5,29.14,NNW,338,2.0,2.0,92,0.00,,,0.00,WUHU216HW,2014-12-28 10:52:00,
2014-12-28 02:57:00,33.8,31.7,29.14,North,0,0.9,2.0,92,0.00,,,0.00,WUHU216HW,2014-12-28 10:57:00,
2014-12-28 03:02:00,34.2,32.0,29.14,NNW,338,0.9,2.0,92,0.00,,,0.00,WUHU216HW,2014-12-28 11:02:00,
2014-12-28 03:07:00,34.2,32.0,29.14,WNW,293,1.8,1.8,92,0.00,,,0.00,WUHU216HW,2014-12-28 11:07:00,
2014-12-28 03:12:00,33.8,31.4,29.14,WNW,293,1.3,2.7,91,0.00,,,0.00,WUHU216HW,2014-12-28 11:12:00,
2014-12-28 03:17:00,33.5,31.1,29.14,NW,315,0.9,2.7,91,0.00,,,0.00,WUHU216HW,2014-12-28 11:17:00,
2014-12-28 03:22:00,33.5,31.1,29.14,NNW,338,2.5,2.5,91,0.00,,,0.00,WUHU216HW,2014-12-28 11:22:00,
2014-12-28 03:27:00,33.7,31.2,29.14,NW,315,3.4,3.4,91,0.00,,,0.00,WUHU216HW,2014-12-28 11:27:00,
2014-12-28 03:32:00,33.7,31.2,29.14,WSW,248,3.1,3.4,91,0.00,,,0.00,WUHU216HW,2014-12-28 11:32:00,
2014-12-28 03:37:00,33.7,31.2,29.14,WNW,293,1.3,3.4,91,0.00,,,0.00,WUHU216HW,2014-12-28 11:37:00,
2014-12-28 03:42:00,33.5,31.1,29.14,West,270,3.1,3.1,91,0.00,,,0.00,WUHU216HW,2014-12-28 11:42:00,
2014-12-28 03:47:00,33.3,31.0,29.15,WNW,293,1.8,3.1,91,0.00,,,0.00,WUHU216HW,2014-12-28 11:47:00,
2014-12-28 03:52:00,33.3,31.0,29.15,West,270,4.7,4.7,91,0.00,,,0.00,WUHU216HW,2014-12-28 11:52:00,
2014-12-28 03:57:00,32.9,30.6,29.16,NW,315,2.9,4.7,91,0.00,,,0.00,WUHU216HW,2014-12-28 11:57:00,
2014-12-28 04:02:00,32.8,30.7,29.15,West,270,3.6,4.7,92,0.00,,,0.00,WUHU216HW,2014-12-28 12:02:00,
2014-12-28 04:07:00,32.8,30.4,29.16,WNW,293,2.5,3.6,91,0.00,,,0.00,WUHU216HW,2014-12-28 12:07:00,
2014-12-28 04:12:00,32.4,30.3,29.16,WNW,293,3.8,4.7,92,0.00,,,0.00,WUHU216HW,2014-12-28 12:12:00,
2014-12-28 04:17:00,32.4,30.3,29.16,NW,315,1.1,4.7,92,0.00,,,0.00,WUHU216HW,2014-12-28 12:17:00,
2014-12-28 04:22:00,32.8,30.7,29.16,WNW,293,0.9,1.1,92,0.00,,,0.00,WUHU216HW,2014-12-28 12:22:00,
2014-12-28 04:27:00,32.8,30.7,29.16,NW,315,1.3,1.8,92,0.00,,,0.00,WUHU216HW,2014-12-28 12:27:00,
2014-12-28 04:32:00,32.8,30.7,29.16,WNW,293,0.7,1.8,92,0.00,,,0.00,WUHU216HW,2014-12-28 12:32:00,
2014-12-28 04:37:00,33.3,31.1,29.16,West,270,2.5,2.5,92,0.00,,,0.00,WUHU216HW,2014-12-28 12:37:00,
2014-12-28 04:42:00,33.7,31.8,29.16,WNW,293,3.4,3.4,93,0.00,,,0.00,WUHU216HW,2014-12-28 12:42:00,
2014-12-28 04:47:00,33.8,31.7,29.16,NNW,338,0.9,4.0,92,0.00,,,0.00,WUHU216HW,2014-12-28 12:47:00,
2014-12-28 04:52:00,33.8,31.7,29.17,NW,315,1.1,4.0,92,0.00,,,0.00,WUHU216HW,2014-12-28 12:52:00,
2014-12-28 04:57:00,33.8,31.7,29.17,NW,315,3.1,4.0,92,0.00,,,0.00,WUHU216HW,2014-12-28 12:57:00,
2014-12-28 05:02:00,34.0,31.9,29.17,NW,315,1.6,3.1,92,0.00,,,0.00,WUHU216HW,2014-12-28 13:02:00,
2014-12-28 05:07:00,33.8,31.4,29.17,WNW,293,2.5,3.1,91,0.00,,,0.00,WUHU216HW,2014-12-28 13:07:00,
2014-12-28 05:12:00,34.0,31.9,29.17,WNW,293,2.5,4.0,92,0.00,,,0.00,WUHU216HW,2014-12-28 13:12:00,
2014-12-28 05:17:00,34.2,32.0,29.17,NW,315,3.1,4.0,92,0.00,,,0.00,WUHU216HW,2014-12-28 13:17:00,
2014-12-28 05:22:00,34.2,32.0,29.17,WNW,293,1.3,3.1,92,0.00,,,0.00,WUHU216HW,2014-12-28 13:22:00,
2014-12-28 05:27:00,34.0,31.6,29.17,NW,315,0.4,3.6,91,0.00,,,0.00,WUHU216HW,2014-12-28 13:27:00,
2014-12-28 05:32:00,33.8,31.4,29.17,North,0,0.4,3.6,91,0.00,,,0.00,WUHU216HW,2014-12-28 13:32:00,
2014-12-28 05:37:00,34.0,31.6,29.17,North,0,0.4,1.8,91,0.00,,,0.00,WUHU216HW,2014-12-28 13:37:00,
2014-12-28 05:42:00,34.0,31.6,29.17,NW,315,2.0,2.0,91,0.00,,,0.00,WUHU216HW,2014-12-28 13:42:00,
2014-12-28 05:47:00,34.0,31.6,29.17,North,0,1.1,2.0,91,0.00,,,0.00,WUHU216HW,2014-12-28 13:47:00,
2014-12-28 05:52:00,33.8,31.4,29.17,North,0,3.4,3.4,91,0.00,,,0.00,WUHU216HW,2014-12-28 13:52:00,
2014-12-28 05:57:00,33.8,31.4,29.18,North,0,1.1,3.4,91,0.00,,,0.00,WUHU216HW,2014-12-28 13:57:00,
2014-12-28 06:02:00,33.7,31.2,29.18,WNW,293,1.8,3.4,91,0.00,,,0.00,WUHU216HW,2014-12-28 14:02:00,
2014-12-28 06:07:00,33.1,30.8,29.18,WNW,293,2.2,2.2,91,0.00,,,0.00,WUHU216HW,2014-12-28 14:07:00,
2014-12-28 06:12:00,32.8,30.4,29.18,West,270,1.8,2.5,91,0.00,,,0.00,WUHU216HW,2014-12-28 14:12:00,
2014-12-28 06:17:00,32.4,30.3,29.18,WSW,248,1.8,3.8,92,0.00,,,0.00,WUHU216HW,2014-12-28 14:17:00,
2014-12-28 06:22:00,32.2,30.2,29.18,West,270,1.8,3.8,92,0.00,,,0.00,WUHU216HW,2014-12-28 14:22:00,
2014-12-28 06:27:00,32.0,29.8,29.18,NW,315,0.2,2.9,91,0.00,,,0.00,WUHU216HW,2014-12-28 14:27:00,
2014-12-28 06:32:00,31.7,29.4,29.18,West,270,0.7,2.9,91,0.00,,,0.00,WUHU216HW,2014-12-28 14:32:00,
2014-12-28 06:37:00,31.7,29.7,29.18,WNW,293,1.3,2.5,92,0.00,,,0.00,WUHU216HW,2014-12-28 14:37:00,
2014-12-28 06:42:00,31.7,29.7,29.18,West,270,1.8,2.5,92,0.00,,,0.00,WUHU216HW,2014-12-28 14:42:00,
2014-12-28 06:47:00,31.3,29.4,29.18,West,270,1.1,1.8,92,0.00,,,0.00,WUHU216HW,2014-12-28 14:47:00,
2014-12-28 06:52:00,31.3,29.4,29.19,WNW,293,0.0,1.8,92,0.00,,,0.00,WUHU216HW,2014-12-28 14:52:00,
2014-12-28 06:57:00,31.3,29.4,29.19,North,0,4.7,4.7,92,0.00,,,0.00,WUHU216HW,2014-12-28 14:57:00,
2014-12-28 07:02:00,32.2,30.2,29.19,WSW,248,2.7,4.7,92,0.00,,,0.00,WUHU216HW,2014-12-28 15:02:00,
2014-12-28 07:07:00,32.4,30.6,29.19,WSW,248,1.3,4.7,93,0.00,,,0.00,WUHU216HW,2014-12-28 15:07:00,
2014-12-28 07:12:00,32.0,30.1,29.20,WNW,293,0.2,2.5,92,0.00,,,0.00,WUHU216HW,2014-12-28 15:12:00,
2014-12-28 07:17:00,31.5,29.5,29.20,NNW,338,0.4,1.3,92,0.00,,,0.00,WUHU216HW,2014-12-28 15:17:00,
2014-12-28 07:22:00,31.5,29.5,29.20,NNW,338,0.0,0.4,92,0.00,,,0.00,WUHU216HW,2014-12-28 15:22:00,
2014-12-28 07:27:00,31.3,29.4,29.20,NNW,338,0.0,0.4,92,0.00,,,0.00,WUHU216HW,2014-12-28 15:27:00,
2014-12-28 07:32:00,31.1,29.2,29.21,NNW,338,0.0,0.0,92,0.00,,,0.00,WUHU216HW,2014-12-28 15:32:00,
2014-12-28 07:37:00,31.3,29.4,29.21,NNW,338,0.0,0.4,92,0.00,,,0.00,WUHU216HW,2014-12-28 15:37:00,
2014-12-28 07:42:00,31.3,29.4,29.21,NNW,338,0.0,0.4,92,0.00,,,0.00,WUHU216HW,2014-12-28 15:42:00,
2014-12-28 07:47:00,31.0,29.0,29.21,NNE,23,1.1,1.1,92,0.00,,,0.00,WUHU216HW,2014-12-28 15:47:00,
2014-12-28 07:52:00,30.8,28.5,29.21,NNE,23,0.4,1.1,91,0.00,,,0.00,WUHU216HW,2014-12-28 15:52:00,
2014-12-28 07:57:00,30.8,28.8,29.21,NNE,23,0.7,1.1,92,0.00,,,0.00,WUHU216HW,2014-12-28 15:57:00,
2014-12-28 08:02:00,31.1,29.2,29.22,NNE,23,0.0,0.7,92,0.00,,,0.00,WUHU216HW,2014-12-28 16:02:00,
2014-12-28 08:07:00,31.0,29.0,29.22,NNE,23,0.4,0.4,92,0.00,,,0.00,WUHU216HW,2014-12-28 16:07:00,
2014-12-28 08:12:00,31.0,29.0,29.22,NNW,338,0.2,1.1,92,0.00,,,0.00,WUHU216HW,2014-12-28 16:12:00,
2014-12-28 08:17:00,31.0,29.0,29.22,NW,315,0.0,1.1,92,0.00,,,0.00,WUHU216HW,2014-12-28 16:17:00,
2014-12-28 08:22:00,30.8,28.8,29.23,North,0,0.4,0.4,92,0.00,,,0.00,WUHU216HW,2014-12-28 16:22:00,
2014-12-28 08:27:00,30.6,28.6,29.23,North,0,0.2,0.7,92,0.00,,,0.00,WUHU216HW,2014-12-28 16:27:00,
2014-12-28 08:32:00,30.2,28.3,29.23,North,0,0.0,0.7,92,0.00,,,0.00,WUHU216HW,2014-12-28 16:32:00,
2014-12-28 08:37:00,30.1,28.1,29.23,North,0,0.2,0.2,92,0.00,,,0.00,WUHU216HW,2014-12-28 16:37:00,
2014-12-28 08:43:00,30.6,28.6,29.24,North,0,0.0,0.2,92,0.00,,,0.00,WUHU216HW,2014-12-28 16:43:00,
2014-12-28 08:48:00,30.8,28.8,29.24,North,0,0.2,0.2,92,0.00,,,0.00,WUHU216HW,2014-12-28 16:48:00,
2014-12-28 08:53:00,31.1,29.2,29.24,NNE,23,0.4,0.4,92,0.00,,,0.00,WUHU216HW,2014-12-28 16:53:00,
2014-12-28 08:58:00,31.1,28.9,29.24,SSE,158,0.4,0.4,91,0.00,,,0.00,WUHU216HW,2014-12-28 16:58:00,
2014-12-28 09:03:00,31.3,29.4,29.24,South,180,0.0,1.6,92,0.00,,,0.00,WUHU216HW,2014-12-28 17:03:00,
2014-12-28 09:08:00,32.0,30.2,29.24,ESE,113,0.4,1.6,93,0.00,,,0.00,WUHU216HW,2014-12-28 17:08:00,
2014-12-28 09:13:00,32.8,30.7,29.25,ESE,113,0.0,1.3,92,0.00,,,0.00,WUHU216HW,2014-12-28 17:13:00,
2014-12-28 09:18:00,34.6,32.4,29.24,ESE,113,0.2,0.2,92,0.00,,,0.00,WUHU216HW,2014-12-28 17:18:00,
2014-12-28 09:23:00,35.5,33.3,29.25,East,90,0.7,0.7,92,0.00,,,0.00,WUHU216HW,2014-12-28 17:23:00,
2014-12-28 09:28:00,36.2,34.0,29.25,ESE,113,0.4,1.1,92,0.00,,,0.00,WUHU216HW,2014-12-28 17:28:00,
2014-12-28 09:33:00,36.4,34.2,29.25,East,90,0.7,1.1,92,0.00,,,0.00,WUHU216HW,2014-12-28 17:33:00,
2014-12-28 09:38:00,36.7,34.0,29.25,NE,45,0.7,1.1,90,0.00,,,0.00,WUHU216HW,2014-12-28 17:38:00,
2014-12-28 09:43:00,36.4,33.4,29.25,ENE,68,0.0,1.1,89,0.00,,,0.00,WUHU216HW,2014-12-28 17:43:00,
2014-12-28 09:48:00,35.8,32.9,29.25,ENE,68,0.0,0.7,89,0.01,,,0.01,WUHU216HW,2014-12-28 17:48:00,
2014-12-28 09:53:00,35.6,32.7,29.26,South,180,1.8,1.8,89,0.01,,,0.01,WUHU216HW,2014-12-28 17:53:00,
2014-12-28 09:58:00,34.9,31.7,29.26,SSW,203,0.4,2.2,88,0.01,,,0.01,WUHU216HW,2014-12-28 17:58:00,
2014-12-28 10:03:00,34.2,31.0,29.26,SSE,158,1.8,2.2,88,0.01,,,0.01,WUHU216HW,2014-12-28 18:03:00,
2014-12-28 10:08:00,35.5,32.5,29.26,SE,135,0.0,1.8,89,0.01,,,0.01,WUHU216HW,2014-12-28 18:08:00,
2014-12-28 10:13:00,38.9,36.2,29.26,SE,135,0.7,0.9,90,0.01,,,0.01,WUHU216HW,2014-12-28 18:13:00,
2014-12-28 10:18:00,40.9,37.9,29.26,SSE,158,1.1,1.6,89,0.01,,,0.01,WUHU216HW,2014-12-28 18:18:00,
2014-12-28 10:23:00,41.4,37.2,29.26,South,180,0.4,1.6,85,0.01,,,0.01,WUHU216HW,2014-12-28 18:23:00,
2014-12-28 10:28:00,42.3,38.1,29.26,South,180,0.4,1.1,85,0.01,,,0.01,WUHU216HW,2014-12-28 18:28:00,
2014-12-28 10:33:00,43.6,39.1,29.26,SE,135,0.2,0.4,84,0.01,,,0.01,WUHU216HW,2014-12-28 18:33:00,
2014-12-28 10:38:00,44.3,38.8,29.26,SE,135,0.0,0.2,81,0.01,,,0.01,WUHU216HW,2014-12-28 18:38:00,
2014-12-28 10:43:00,43.6,36.2,29.26,WSW,248,0.0,0.2,75,0.01,,,0.01,WUHU216HW,2014-12-28 18:43:00,
2014-12-28 10:48:00,44.3,38.2,29.26,SSW,203,0.9,0.9,79,0.00,,,0.01,WUHU216HW,2014-12-28 18:48:00,
2014-12-28 10:53:00,44.3,36.8,29.26,SSW,203,0.0,0.9,75,0.00,,,0.01,WUHU216HW,2014-12-28 18:53:00,
2014-12-28 10:58:00,44.6,35.5,29.26,SSW,203,0.0,0.9,70,0.00,,,0.01,WUHU216HW,2014-12-28 18:58:00,
2014-12-28 11:03:00,43.7,34.7,29.25,WNW,293,0.2,0.9,70,0.00,,,0.01,WUHU216HW,2014-12-28 19:03:00,
2014-12-28 11:08:00,43.6,34.1,29.26,SW,225,1.6,2.7,69,0.00,,,0.01,WUHU216HW,2014-12-28 19:08:00,
2014-12-28 11:13:00,43.4,34.7,29.26,WSW,248,2.2,2.7,71,0.00,,,0.01,WUHU216HW,2014-12-28 19:13:00,
2014-12-28 11:18:00,42.8,34.2,29.25,WSW,248,1.1,2.2,71,0.00,,,0.01,WUHU216HW,2014-12-28 19:18:00,
2014-12-28 11:23:00,41.9,33.3,29.25,SW,225,1.1,1.1,71,0.00,,,0.01,WUHU216HW,2014-12-28 19:23:00,
2014-12-28 11:28:00,42.1,33.8,29.25,WSW,248,2.0,2.0,72,0.00,,,0.01,WUHU216HW,2014-12-28 19:28:00,
2014-12-28 11:33:00,41.8,33.8,29.25,SW,225,2.5,2.7,73,0.00,,,0.01,WUHU216HW,2014-12-28 19:33:00,
2014-12-28 11:38:00,41.4,33.7,29.25,WNW,293,2.0,2.7,74,0.00,,,0.01,WUHU216HW,2014-12-28 19:38:00,
2014-12-28 11:43:00,41.2,33.8,29.25,West,270,2.0,2.5,75,0.00,,,0.01,WUHU216HW,2014-12-28 19:43:00,
2014-12-28 11:48:00,41.8,34.0,29.25,WNW,293,0.0,2.5,74,0.00,,,0.01,WUHU216HW,2014-12-28 19:48:00,
2014-12-28 11:53:00,42.1,34.4,29.24,West,270,3.8,3.8,74,0.00,,,0.01,WUHU216HW,2014-12-28 19:53:00,
2014-12-28 11:58:00,42.5,33.9,29.24,WSW,248,4.3,4.9,71,0.00,,,0.01,WUHU216HW,2014-12-28 19:58:00,
2014-12-28 12:03:00,41.9,34.2,29.24,West,270,1.8,4.9,74,0.00,,,0.01,WUHU216HW,2014-12-28 20:03:00,
2014-12-28 12:08:00,42.1,34.1,29.24,SW,225,0.7,2.2,73,0.00,,,0.01,WUHU216HW,2014-12-28 20:08:00,
2014-12-28 12:13:00,41.8,33.8,29.24,NW,315,2.5,3.1,73,0.00,,,0.01,WUHU216HW,2014-12-28 20:13:00,
2014-12-28 12:19:00,41.6,33.8,29.24,West,270,1.1,3.1,74,0.00,,,0.01,WUHU216HW,2014-12-28 20:19:00,
2014-12-28 12:24:00,41.0,33.3,29.24,WNW,293,2.2,3.1,74,0.00,,,0.01,WUHU216HW,2014-12-28 20:24:00,
2014-12-28 12:29:00,40.7,33.0,29.24,WNW,293,0.4,3.1,74,0.00,,,0.01,WUHU216HW,2014-12-28 20:29:00,
2014-12-28 12:34:00,40.7,33.0,29.24,NW,315,0.4,2.5,74,0.00,,,0.01,WUHU216HW,2014-12-28 20:34:00,
2014-12-28 12:39:00,40.5,33.1,29.24,West,270,1.1,1.1,75,0.00,,,0.01,WUHU216HW,2014-12-28 20:39:00,
2014-12-28 12:44:00,40.7,33.3,29.24,West,270,2.7,2.7,75,0.00,,,0.01,WUHU216HW,2014-12-28 20:44:00,
2014-12-28 12:49:00,40.7,33.7,29.24,WSW,248,0.9,2.7,76,0.00,,,0.01,WUHU216HW,2014-12-28 20:49:00,
2014-12-28 12:54:00,40.7,33.7,29.24,West,270,1.6,2.7,76,0.00,,,0.01,WUHU216HW,2014-12-28 20:54:00,
2014-12-28 12:59:00,40.7,33.9,29.23,WNW,293,1.1,3.8,77,0.00,,,0.01,WUHU216HW,2014-12-28 20:59:00,
2014-12-28 13:04:00,40.5,33.9,29.23,West,270,1.8,3.8,77,0.00,,,0.01,WUHU216HW,2014-12-28 21:04:00,
2014-12-28 13:09:00,40.0,33.7,29.23,WSW,248,1.8,1.8,78,0.00,,,0.01,WUHU216HW,2014-12-28 21:09:00,
2014-12-28 13:14:00,39.8,33.5,29.23,WSW,248,1.8,1.8,78,0.00,,,0.01,WUHU216HW,2014-12-28 21:14:00,
2014-12-28 13:19:00,39.4,33.5,29.23,WSW,248,1.6,1.8,79,0.00,,,0.01,WUHU216HW,2014-12-28 21:19:00,
2014-12-28 13:24:00,38.9,33.3,29.23,SW,225,2.7,2.7,80,0.00,,,0.01,WUHU216HW,2014-12-28 21:24:00,
2014-12-28 13:29:00,38.5,32.9,29.23,SW,225,1.1,2.7,80,0.00,,,0.01,WUHU216HW,2014-12-28 21:29:00,
2014-12-28 13:34:00,38.3,32.8,29.23,SSW,203,1.1,2.5,80,0.00,,,0.01,WUHU216HW,2014-12-28 21:34:00,
2014-12-28 13:39:00,38.5,32.9,29.22,SSW,203,0.4,2.5,80,0.00,,,0.01,WUHU216HW,2014-12-28 21:39:00,
2014-12-28 13:44:00,38.5,32.9,29.22,SE,135,0.4,0.4,80,0.00,,,0.01,WUHU216HW,2014-12-28 21:44:00,
2014-12-28 13:49:00,38.7,33.1,29.22,SE,135,0.4,0.9,80,0.00,,,0.01,WUHU216HW,2014-12-28 21:49:00,
2014-12-28 13:54:00,38.5,32.9,29.22,SSE,158,1.8,1.8,80,0.00,,,0.01,WUHU216HW,2014-12-28 21:54:00,
2014-12-28 13:59:00,38.2,32.6,29.22,South,180,1.1,2.9,80,0.00,,,0.01,WUHU216HW,2014-12-28 21:59:00,
2014-12-28 14:04:00,38.2,32.6,29.22,SSE,158,0.4,2.9,80,0.00,,,0.01,WUHU216HW,2014-12-28 22:04:00,
2014-12-28 14:09:00,38.5,32.9,29.22,SE,135,0.0,0.4,80,0.00,,,0.01,WUHU216HW,2014-12-28 22:09:00,
2014-12-28 14:14:00,39.4,33.9,29.22,SE,135,1.1,1.1,80,0.00,,,0.01,WUHU216HW,2014-12-28 22:14:00,
2014-12-28 14:19:00,39.1,33.1,29.23,ESE,113,1.8,1.8,79,0.00,,,0.01,WUHU216HW,2014-12-28 22:19:00,
2014-12-28 14:24:00,38.2,32.0,29.23,East,90,0.4,1.8,78,0.00,,,0.01,WUHU216HW,2014-12-28 22:24:00,
2014-12-28 14:29:00,38.7,33.1,29.23,East,90,0.7,1.8,80,0.00,,,0.01,WUHU216HW,2014-12-28 22:29:00,
2014-12-28 14:34:00,40.5,35.1,29.24,SSE,158,1.6,1.6,81,0.00,,,0.01,WUHU216HW,2014-12-28 22:34:00,
2014-12-28 14:39:00,43.2,36.5,29.24,SE,135,0.0,1.6,77,0.00,,,0.01,WUHU216HW,2014-12-28 22:39:00,
2014-12-28 14:44:00,44.6,37.2,29.24,SSE,158,0.4,1.1,75,0.00,,,0.01,WUHU216HW,2014-12-28 22:44:00,
2014-12-28 14:49:00,44.6,36.5,29.24,SSE,158,1.3,1.3,73,0.00,,,0.01,WUHU216HW,2014-12-28 22:49:00,
2014-12-28 14:54:00,43.6,34.8,29.24,SSE,158,0.0,1.3,71,0.00,,,0.01,WUHU216HW,2014-12-28 22:54:00,
2014-12-28 14:59:00,43.4,35.3,29.24,SSE,158,0.0,1.3,73,0.00,,,0.01,WUHU216HW,2014-12-28 22:59:00,
2014-12-28 15:04:00,43.0,34.3,29.24,SSE,158,0.7,0.7,71,0.00,,,0.01,WUHU216HW,2014-12-28 23:04:00,
2014-12-28 15:09:00,41.0,33.0,29.24,SE,135,0.0,0.7,73,0.00,,,0.01,WUHU216HW,2014-12-28 23:09:00,
2014-12-28 15:14:00,40.0,32.3,29.24,SE,135,0.4,0.4,74,0.00,,,0.01,WUHU216HW,2014-12-28 23:14:00,
2014-12-28 15:19:00,39.1,32.1,29.24,ENE,68,0.0,0.4,76,0.00,,,0.01,WUHU216HW,2014-12-28 23:19:00,
2014-12-28 15:24:00,38.7,32.8,29.24,ENE,68,0.2,0.4,79,0.00,,,0.01,WUHU216HW,2014-12-28 23:24:00,
2014-12-28 15:29:00,38.2,32.0,29.24,ENE,68,0.2,0.4,78,0.00,,,0.01,WUHU216HW,2014-12-28 23:29:00,
2014-12-28 15:34:00,37.8,32.2,29.24,ENE,68,0.2,0.4,80,0.00,,,0.01,WUHU216HW,2014-12-28 23:34:00,
2014-12-28 15:39:00,37.6,32.0,29.24,ENE,68,0.2,0.7,80,0.00,,,0.01,WUHU216HW,2014-12-28 23:39:00,
2014-12-28 15:44:00,37.4,31.9,29.24,ENE,68,0.0,0.7,80,0.00,,,0.01,WUHU216HW,2014-12-28 23:44:00,
2014-12-28 15:49:00,37.1,31.8,29.24,ENE,68,0.7,0.7,81,0.00,,,0.01,WUHU216HW,2014-12-28 23:49:00,
2014-12-28 15:54:00,36.9,31.6,29.24,ENE,68,0.0,0.7,81,0.00,,,0.01,WUHU216HW,2014-12-28 23:54:00,
2014-12-28 15:59:00,36.4,31.1,29.24,ENE,68,0.0,0.7,81,0.00,,,0.01,WUHU216HW,2014-12-28 23:59:00,
2014-12-28 16:04:00,35.8,30.8,29.24,ENE,68,0.4,0.4,82,0.00,,,0.01,WUHU216HW,2014-12-29 00:04:00,
2014-12-28 16:09:00,35.5,30.4,29.24,ENE,68,0.2,0.4,82,0.00,,,0.01,WUHU216HW,2014-12-29 00:09:00,
2014-12-28 16:14:00,35.3,30.9,29.24,ENE,68,0.4,0.4,84,0.00,,,0.01,WUHU216HW,2014-12-29 00:14:00,
2014-12-28 16:19:00,35.1,30.7,29.24,ENE,68,0.4,0.4,84,0.00,,,0.01,WUHU216HW,2014-12-29 00:19:00,
2014-12-28 16:24:00,34.9,30.5,29.24,ENE,68,0.4,0.4,84,0.00,,,0.01,WUHU216HW,2014-12-29 00:24:00,